createdAt,value
2023-05-01T00:01:27.491Z,4.18
2023-05-01T00:03:55.283Z,4.15
2023-05-01T00:06:23.732Z,3.97
2023-05-01T00:08:51.601Z,4.22
2023-05-01T00:11:19.303Z,4.20
2023-05-01T00:13:47.394Z,4.13
2023-05-01T00:16:16.874Z,4.05
2023-05-01T00:18:47.163Z,4.38
2023-05-01T00:21:14.866Z,4.32
2023-05-01T00:23:42.953Z,4.40
2023-05-01T00:26:10.675Z,4.25
2023-05-01T00:28:38.470Z,4.53
2023-05-01T00:31:06.586Z,4.28
2023-05-01T00:33:34.243Z,5.53
2023-05-01T00:36:03.381Z,5.07
2023-05-01T00:38:31.721Z,4.65
2023-05-01T00:40:59.367Z,5.30
2023-05-01T00:43:27.200Z,4.55
2023-05-01T00:45:55.367Z,5.10
2023-05-01T00:48:23.288Z,4.43
2023-05-01T00:50:52.056Z,4.82
2023-05-01T00:53:22.653Z,4.35
2023-05-01T00:58:19.529Z,5.28
2023-05-01T01:00:48.396Z,4.72
2023-05-01T01:03:16.585Z,5.00
2023-05-01T01:05:51.215Z,4.88
2023-05-01T01:08:25.620Z,4.80
2023-05-01T01:10:58.430Z,5.18
2023-05-01T01:13:31.206Z,5.22
2023-05-01T01:16:09.531Z,5.32
2023-05-01T01:18:43.317Z,5.13
2023-05-01T01:21:18.449Z,5.00
2023-05-01T01:24:13.720Z,5.13
2023-05-01T01:27:13.278Z,5.78
2023-05-01T01:29:52.347Z,5.57
2023-05-01T01:33:06.051Z,5.85
2023-05-01T01:35:37.195Z,5.78
2023-05-01T01:38:11.830Z,5.72
2023-05-01T01:40:45.119Z,5.90
2023-05-01T01:43:18.070Z,6.20
2023-05-01T01:45:51.809Z,5.95
2023-05-01T01:48:25.867Z,6.05
2023-05-01T01:50:58.261Z,6.25
2023-05-01T01:53:28.340Z,6.10
2023-05-01T01:55:57.398Z,6.45
2023-05-01T01:58:29.385Z,6.65
2023-05-01T02:00:59.178Z,6.95
2023-05-01T02:03:27.915Z,5.82
2023-05-01T02:05:59.821Z,6.05
2023-05-01T02:08:31.836Z,5.85
2023-05-01T02:11:02.479Z,6.07
2023-05-01T02:15:59.745Z,6.10
2023-05-01T02:18:30.457Z,6.53
2023-05-01T02:21:00.813Z,6.72
2023-05-01T02:23:30.006Z,6.97
2023-05-01T02:25:59.756Z,6.22
2023-05-01T02:28:31.306Z,6.53
2023-05-01T02:31:00.227Z,6.65
2023-05-01T02:33:28.249Z,6.28
2023-05-01T02:35:57.188Z,7.22
2023-05-01T02:38:27.149Z,7.00
2023-05-01T02:40:59.237Z,6.85
2023-05-01T02:43:29.642Z,7.28
2023-05-01T02:45:59.720Z,7.40
2023-05-01T02:48:29.502Z,6.93
2023-05-01T02:50:58.182Z,7.40
2023-05-01T02:53:27.668Z,7.53
2023-05-01T02:55:55.944Z,6.97
2023-05-01T02:58:25.227Z,7.22
2023-05-01T03:00:52.886Z,7.03
2023-05-01T03:03:20.625Z,7.00
2023-05-01T03:05:49.005Z,6.88
2023-05-01T03:08:17.153Z,6.97
2023-05-01T03:10:46.238Z,7.28
2023-05-01T03:13:14.356Z,6.88
2023-05-01T03:15:42.687Z,7.65
2023-05-01T03:18:10.373Z,6.95
2023-05-01T03:20:39.465Z,7.10
2023-05-01T03:23:07.681Z,7.30
2023-05-01T03:25:35.951Z,6.80
2023-05-01T03:28:05.103Z,6.80
2023-05-01T03:30:34.788Z,6.72
2023-05-01T03:33:03.201Z,7.00
2023-05-01T03:35:31.083Z,7.03
2023-05-01T03:37:58.898Z,8.07
2023-05-01T03:40:27.783Z,6.55
2023-05-01T03:42:55.430Z,6.60
2023-05-01T03:45:24.937Z,6.90
2023-05-01T03:47:53.519Z,6.43
2023-05-01T03:50:21.283Z,5.82
2023-05-01T03:52:49.027Z,6.20
2023-05-01T03:55:17.351Z,6.50
2023-05-01T03:57:47.120Z,6.38
2023-05-01T04:00:15.227Z,6.70
2023-05-01T04:02:45.489Z,7.07
2023-05-01T04:05:14.324Z,6.82
2023-05-01T04:07:42.684Z,6.95
2023-05-01T04:10:11.286Z,6.18
2023-05-01T04:12:39.058Z,6.53
2023-05-01T04:15:08.500Z,6.18
2023-05-01T04:17:37.884Z,6.05
2023-05-01T04:20:08.189Z,7.10
2023-05-01T04:22:36.362Z,7.60
2023-05-01T04:25:05.174Z,6.78
2023-05-01T04:27:32.889Z,8.18
2023-05-01T04:30:00.737Z,6.68
2023-05-01T04:32:30.083Z,6.53
2023-05-01T04:34:58.014Z,6.38
2023-05-01T04:37:27.131Z,6.30
2023-05-01T04:39:57.051Z,6.63
2023-05-01T04:42:25.366Z,7.10
2023-05-01T04:44:53.674Z,7.18
2023-05-01T04:47:21.321Z,6.65
2023-05-01T04:49:48.948Z,6.05
2023-05-01T04:52:17.335Z,7.03
2023-05-01T04:54:46.411Z,5.70
2023-05-01T04:57:14.142Z,5.25
2023-05-01T04:59:42.973Z,6.13
2023-05-01T05:02:11.047Z,5.80
2023-05-01T05:04:39.265Z,5.95
2023-05-01T05:07:07.374Z,5.85
2023-05-01T05:09:35.452Z,6.05
2023-05-01T05:12:05.835Z,5.80
2023-05-01T05:14:33.525Z,5.88
2023-05-01T05:17:01.317Z,5.72
2023-05-01T05:19:30.233Z,5.55
2023-05-01T05:21:58.021Z,5.47
2023-05-01T05:24:26.037Z,5.50
2023-05-01T05:26:54.621Z,5.65
2023-05-01T05:29:23.667Z,5.32
2023-05-01T05:31:51.341Z,5.28
2023-05-01T05:34:21.014Z,5.43
2023-05-01T05:36:48.666Z,5.73
2023-05-01T05:39:16.375Z,5.13
2023-05-01T05:41:45.510Z,5.15
2023-05-01T05:44:13.260Z,4.85
2023-05-01T05:46:42.753Z,5.32
2023-05-01T05:49:10.802Z,4.90
2023-05-01T05:51:38.527Z,4.95
2023-05-01T05:54:06.339Z,4.95
2023-05-01T05:56:34.565Z,4.57
2023-05-01T05:59:04.513Z,5.10
2023-05-01T06:01:32.333Z,4.63
2023-05-01T06:04:02.560Z,5.15
2023-05-01T06:06:31.774Z,4.85
2023-05-01T06:09:00.603Z,4.60
2023-05-01T06:11:28.357Z,4.20
2023-05-01T06:13:57.312Z,4.70
2023-05-01T06:16:26.022Z,4.70
2023-05-01T06:18:53.668Z,5.50
2023-05-01T06:21:22.740Z,4.53
2023-05-01T06:23:50.897Z,4.50
2023-05-01T06:26:19.046Z,4.47
2023-05-01T06:28:47.065Z,4.05
2023-05-01T06:31:15.381Z,4.90
2023-05-01T06:33:43.157Z,4.63
2023-05-01T06:36:10.853Z,5.07
2023-05-01T06:38:42.542Z,4.32
2023-05-01T06:41:10.341Z,4.43
2023-05-01T06:43:38.398Z,3.97
2023-05-01T06:46:06.112Z,3.88
2023-05-01T06:48:34.130Z,4.10
2023-05-01T06:51:02.277Z,4.22
2023-05-01T06:53:29.909Z,3.70
2023-05-01T06:55:58.979Z,3.95
2023-05-01T06:58:27.906Z,4.28
2023-05-01T07:00:55.777Z,3.72
2023-05-01T07:03:24.244Z,4.20
2023-05-01T07:05:52.275Z,3.97
2023-05-01T07:08:19.989Z,3.80
2023-05-01T07:10:47.826Z,3.75
2023-05-01T07:13:17.351Z,3.60
2023-05-01T07:15:45.306Z,3.50
2023-05-01T07:18:13.363Z,3.33
2023-05-01T07:20:42.005Z,3.70
2023-05-01T07:23:11.860Z,3.72
2023-05-01T07:25:41.279Z,4.03
2023-05-01T07:28:09.098Z,4.07
2023-05-01T07:30:38.848Z,3.45
2023-05-01T07:33:06.923Z,3.73
2023-05-01T07:35:34.685Z,3.88
2023-05-01T07:38:03.585Z,3.90
2023-05-01T07:40:33.582Z,3.30
2023-05-01T07:43:01.830Z,3.45
2023-05-01T07:45:30.112Z,3.53
2023-05-01T07:47:59.659Z,3.30
2023-05-01T07:50:27.974Z,3.60
2023-05-01T07:52:56.010Z,3.53
2023-05-01T07:55:23.999Z,3.28
2023-05-01T07:57:52.374Z,3.40
2023-05-01T08:00:20.548Z,3.50
2023-05-01T08:02:48.502Z,2.83
2023-05-01T08:05:18.809Z,3.42
2023-05-01T08:07:46.543Z,3.28
2023-05-01T08:10:15.309Z,3.80
2023-05-01T08:12:43.374Z,3.03
2023-05-01T08:15:11.226Z,3.05
2023-05-01T08:17:39.025Z,3.53
2023-05-01T08:20:09.375Z,3.45
2023-05-01T08:22:38.624Z,3.83
2023-05-01T08:25:08.071Z,2.95
2023-05-01T08:27:36.512Z,2.72
2023-05-01T08:30:04.859Z,2.80
2023-05-01T08:32:33.958Z,2.92
2023-05-01T08:35:01.844Z,2.83
2023-05-01T08:37:29.528Z,3.15
2023-05-01T08:40:00.031Z,2.60
2023-05-01T08:45:00.840Z,3.00
2023-05-01T08:47:30.549Z,3.03
2023-05-01T08:50:01.022Z,3.10
2023-05-01T08:52:31.392Z,3.65
2023-05-01T08:55:02.170Z,2.95
2023-05-01T08:57:31.856Z,2.63
2023-05-01T09:00:00.201Z,2.40
2023-05-01T09:02:30.619Z,2.83
2023-05-01T09:05:01.820Z,2.33
2023-05-01T09:07:31.275Z,2.58
2023-05-01T09:10:00.604Z,2.40
2023-05-01T09:12:29.505Z,3.10
2023-05-01T09:14:58.343Z,3.47
2023-05-01T09:17:26.354Z,2.47
2023-05-01T09:19:54.740Z,2.53
2023-05-01T09:22:23.048Z,2.30
2023-05-01T09:24:50.845Z,2.25
2023-05-01T09:27:20.372Z,2.38
2023-05-01T09:29:49.498Z,2.70
2023-05-01T09:32:20.516Z,2.53
2023-05-01T09:34:49.052Z,2.55
2023-05-01T09:37:27.981Z,2.30
2023-05-01T09:40:09.570Z,2.20
2023-05-01T09:42:41.495Z,2.40
2023-05-01T09:45:14.235Z,2.42
2023-05-01T09:47:43.059Z,2.92
2023-05-01T09:50:12.572Z,2.67
2023-05-01T09:52:40.445Z,2.95
2023-05-01T09:55:16.692Z,2.50
2023-05-01T09:57:48.006Z,4.35
2023-05-01T10:00:18.552Z,3.10
2023-05-01T10:02:47.765Z,3.13
2023-05-01T10:05:16.824Z,2.70
2023-05-01T10:07:57.902Z,4.65
2023-05-01T10:10:26.239Z,2.70
2023-05-01T10:12:55.698Z,3.03
2023-05-01T10:15:26.747Z,3.35
2023-05-01T10:17:55.461Z,3.30
2023-05-01T10:20:24.487Z,3.17
2023-05-01T10:22:52.389Z,3.67
2023-05-01T10:25:22.051Z,3.10
2023-05-01T10:27:53.277Z,3.30
2023-05-01T10:30:22.794Z,2.97
2023-05-01T10:32:51.183Z,3.03
2023-05-01T10:35:22.597Z,3.10
2023-05-01T10:38:00.153Z,3.05
2023-05-01T10:40:50.006Z,2.97
2023-05-01T10:43:22.128Z,3.13
2023-05-01T10:45:52.272Z,3.63
2023-05-01T10:48:56.277Z,2.80
2023-05-01T10:51:27.530Z,3.05
2023-05-01T10:54:26.009Z,3.10
2023-05-01T10:56:55.011Z,3.25
2023-05-01T10:59:22.829Z,3.13
2023-05-01T11:01:54.409Z,3.00
2023-05-01T11:04:51.256Z,3.50
2023-05-01T11:07:20.470Z,3.22
2023-05-01T11:09:51.219Z,3.78
2023-05-01T11:12:49.861Z,3.28
2023-05-01T11:15:27.696Z,3.33
2023-05-01T11:17:57.566Z,3.08
2023-05-01T11:20:48.383Z,3.47
2023-05-01T11:23:23.842Z,3.30
2023-05-01T11:25:51.815Z,3.40
2023-05-01T11:28:22.642Z,3.13
2023-05-01T11:30:51.000Z,5.25
2023-05-01T11:33:27.480Z,6.30
2023-05-01T11:36:02.826Z,3.42
2023-05-01T11:38:30.578Z,3.33
2023-05-01T11:41:05.303Z,3.80
2023-05-01T11:43:33.269Z,3.25
2023-05-01T11:46:04.385Z,3.90
2023-05-01T11:48:33.938Z,5.10
2023-05-01T11:51:01.734Z,4.28
2023-05-01T11:53:30.338Z,3.72
2023-05-01T11:55:59.453Z,3.80
2023-05-01T11:58:36.703Z,3.38
2023-05-01T12:01:04.547Z,3.95
2023-05-01T12:03:45.025Z,3.50
2023-05-01T12:08:46.336Z,3.70
2023-05-01T12:11:14.509Z,3.55
2023-05-01T12:13:42.803Z,3.50
2023-05-01T12:16:11.889Z,3.38
2023-05-01T12:18:39.699Z,3.50
2023-05-01T12:21:17.427Z,3.65
2023-05-01T12:23:45.199Z,3.30
2023-05-01T12:26:25.403Z,3.42
2023-05-01T12:29:01.469Z,3.58
2023-05-01T12:31:30.946Z,3.80
2023-05-01T12:34:00.141Z,3.47
2023-05-01T12:36:32.015Z,3.60
2023-05-01T12:39:01.678Z,3.38
2023-05-01T12:41:39.709Z,3.43
2023-05-01T12:44:22.268Z,3.30
2023-05-01T12:46:57.812Z,3.28
2023-05-01T12:49:26.459Z,3.60
2023-05-01T12:51:58.040Z,3.58
2023-05-01T12:54:28.521Z,3.28
2023-05-01T12:59:36.787Z,3.58
2023-05-01T13:02:06.305Z,2.72
2023-05-01T13:04:36.202Z,3.22
2023-05-01T13:07:12.358Z,3.40
2023-05-01T13:09:40.763Z,2.97
2023-05-01T13:12:09.844Z,2.90
2023-05-01T13:14:39.424Z,2.95
2023-05-01T13:17:09.270Z,3.30
2023-05-01T13:19:38.254Z,3.55
2023-05-01T13:22:07.483Z,3.40
2023-05-01T13:24:38.294Z,3.25
2023-05-01T13:27:06.485Z,2.90
2023-05-01T13:29:34.710Z,3.13
2023-05-01T13:32:04.539Z,2.80
2023-05-01T13:34:33.948Z,3.25
2023-05-01T13:37:03.177Z,3.05
2023-05-01T13:39:32.640Z,3.00
2023-05-01T13:42:03.774Z,3.45
2023-05-01T13:44:32.091Z,3.45
2023-05-01T13:47:04.083Z,3.38
2023-05-01T13:49:31.980Z,3.17
2023-05-01T13:51:59.631Z,3.40
2023-05-01T13:54:28.061Z,3.33
2023-05-01T13:56:58.161Z,3.13
2023-05-01T13:59:25.861Z,3.25
2023-05-01T14:01:54.959Z,3.70
2023-05-01T14:04:22.685Z,3.28
2023-05-01T14:06:50.887Z,4.55
2023-05-01T14:09:19.345Z,3.80
2023-05-01T14:11:48.850Z,3.33
2023-05-01T14:14:19.672Z,3.38
2023-05-01T14:16:49.488Z,3.72
2023-05-01T14:19:18.362Z,3.25
2023-05-01T14:21:48.058Z,3.58
2023-05-01T14:24:18.281Z,2.97
2023-05-01T14:26:49.195Z,3.50
2023-05-01T14:29:27.954Z,3.90
2023-05-01T14:31:57.089Z,3.38
2023-05-01T14:34:28.635Z,3.90
2023-05-01T14:36:58.879Z,3.30
2023-05-01T14:39:27.386Z,3.13
2023-05-01T14:42:00.641Z,3.20
2023-05-01T14:44:29.705Z,3.58
2023-05-01T14:46:59.081Z,3.78
2023-05-01T14:49:27.327Z,3.50
2023-05-01T14:51:55.401Z,3.92
2023-05-01T14:54:23.699Z,3.55
2023-05-01T14:56:51.379Z,3.72
2023-05-01T14:59:19.568Z,3.58
2023-05-01T15:01:49.469Z,3.70
2023-05-01T15:04:18.785Z,3.30
2023-05-01T15:06:46.741Z,3.65
2023-05-01T15:09:14.730Z,3.65
2023-05-01T15:11:43.120Z,3.47
2023-05-01T15:14:11.209Z,3.80
2023-05-01T15:16:38.991Z,3.80
2023-05-01T15:19:08.484Z,3.67
2023-05-01T15:21:36.729Z,3.90
2023-05-01T15:24:05.829Z,3.88
2023-05-01T15:26:33.493Z,3.63
2023-05-01T15:29:01.634Z,3.22
2023-05-01T15:31:30.580Z,3.63
2023-05-01T15:33:58.946Z,4.15
2023-05-01T15:36:28.097Z,3.75
2023-05-01T15:38:56.175Z,3.35
2023-05-01T15:41:23.924Z,3.40
2023-05-01T15:43:53.034Z,4.03
2023-05-01T15:46:23.333Z,3.65
2023-05-01T15:51:19.666Z,3.55
2023-05-01T15:53:49.072Z,3.45
2023-05-01T15:56:16.787Z,3.42
2023-05-01T15:58:44.995Z,3.80
2023-05-01T16:01:13.372Z,3.70
2023-05-01T16:03:46.744Z,3.45
2023-05-01T16:06:15.683Z,3.58
2023-05-01T16:08:43.966Z,3.50
2023-05-01T16:11:13.834Z,3.63
2023-05-01T16:13:43.088Z,3.25
2023-05-01T16:16:11.769Z,3.60
2023-05-01T16:18:41.823Z,3.90
2023-05-01T16:21:11.427Z,4.43
2023-05-01T16:23:40.133Z,4.05
2023-05-01T16:26:09.073Z,4.05
2023-05-01T16:28:38.170Z,3.92
2023-05-01T16:31:23.589Z,3.60
2023-05-01T16:33:56.556Z,3.63
2023-05-01T16:36:24.780Z,4.00
2023-05-01T16:38:53.624Z,3.83
2023-05-01T16:41:21.932Z,3.70
2023-05-01T16:43:51.342Z,3.55
2023-05-01T16:46:20.253Z,3.78
2023-05-01T16:48:48.583Z,3.47
2023-05-01T16:51:16.891Z,3.58
2023-05-01T16:53:44.563Z,4.57
2023-05-01T16:56:13.210Z,4.13
2023-05-01T16:58:40.864Z,4.45
2023-05-01T17:01:10.265Z,4.00
2023-05-01T17:03:38.126Z,4.63
2023-05-01T17:06:07.101Z,4.35
2023-05-01T17:08:35.282Z,4.25
2023-05-01T17:11:04.586Z,4.00
2023-05-01T17:13:32.852Z,4.13
2023-05-01T17:16:01.099Z,4.10
2023-05-01T17:18:30.170Z,4.13
2023-05-01T17:20:58.284Z,4.25
2023-05-01T17:23:28.016Z,4.93
2023-05-01T17:25:57.216Z,4.38
2023-05-01T17:28:25.358Z,3.92
2023-05-01T17:30:53.064Z,4.00
2023-05-01T17:33:21.058Z,4.60
2023-05-01T17:35:50.383Z,4.68
2023-05-01T17:38:18.561Z,5.05
2023-05-01T17:40:46.206Z,4.40
2023-05-01T17:43:14.708Z,4.90
2023-05-01T17:45:44.272Z,4.53
2023-05-01T17:48:12.605Z,4.93
2023-05-01T17:50:40.281Z,5.00
2023-05-01T17:53:09.912Z,4.80
2023-05-01T17:55:38.905Z,5.40
2023-05-01T17:58:07.360Z,5.00
2023-05-01T18:00:35.195Z,4.82
2023-05-01T18:03:04.316Z,5.40
2023-05-01T18:05:32.113Z,4.55
2023-05-01T18:07:59.828Z,5.53
2023-05-01T18:10:31.480Z,4.88
2023-05-01T18:12:59.630Z,5.78
2023-05-01T18:15:27.375Z,5.15
2023-05-01T18:17:55.507Z,5.18
2023-05-01T18:20:23.689Z,5.22
2023-05-01T18:22:52.190Z,5.28
2023-05-01T18:25:20.001Z,5.88
2023-05-01T18:27:50.318Z,5.43
2023-05-01T18:30:18.064Z,5.40
2023-05-01T18:32:48.277Z,5.55
2023-05-01T18:35:17.403Z,5.35
2023-05-01T18:37:47.262Z,5.90
2023-05-01T18:40:15.090Z,5.60
2023-05-01T18:42:42.753Z,5.88
2023-05-01T18:45:13.259Z,6.28
2023-05-01T18:50:10.798Z,6.05
2023-05-01T18:52:38.552Z,6.38
2023-05-01T18:55:07.558Z,5.82
2023-05-01T18:57:35.940Z,6.55
2023-05-01T19:00:04.184Z,6.97
2023-05-01T19:02:33.352Z,6.50
2023-05-01T19:05:02.270Z,5.93
2023-05-01T19:07:30.049Z,5.47
2023-05-01T19:09:58.285Z,6.25
2023-05-01T19:12:26.250Z,5.80
2023-05-01T19:14:54.628Z,6.47
2023-05-01T19:17:22.504Z,6.22
2023-05-01T19:19:52.275Z,5.68
2023-05-01T19:22:19.934Z,7.28
2023-05-01T19:24:48.807Z,6.53
2023-05-01T19:27:17.976Z,6.95
2023-05-01T19:29:46.259Z,6.47
2023-05-01T19:32:14.201Z,6.60
2023-05-01T19:34:42.548Z,7.15
2023-05-01T19:37:11.657Z,5.95
2023-05-01T19:39:40.445Z,6.90
2023-05-01T19:42:08.145Z,6.75
2023-05-01T19:44:35.829Z,6.80
2023-05-01T19:47:04.707Z,6.63
2023-05-01T19:49:32.928Z,7.28
2023-05-01T19:52:01.013Z,7.35
2023-05-01T19:54:30.117Z,7.10
2023-05-01T19:56:59.134Z,6.15
2023-05-01T19:59:26.909Z,6.68
2023-05-01T20:01:55.207Z,7.38
2023-05-01T20:04:24.139Z,6.53
2023-05-01T20:06:52.834Z,6.65
2023-05-01T20:09:20.567Z,6.60
2023-05-01T20:11:50.000Z,6.10
2023-05-01T20:14:17.702Z,37.78
2023-05-01T20:16:46.525Z,27.00
2023-05-01T20:19:16.314Z,14.73
2023-05-01T20:21:44.538Z,10.80
2023-05-01T20:24:12.246Z,8.88
2023-05-01T20:26:40.969Z,7.45
2023-05-01T20:29:10.495Z,7.95
2023-05-01T20:31:38.384Z,7.90
2023-05-01T20:34:06.101Z,8.00
2023-05-01T20:36:34.571Z,8.27
2023-05-01T20:39:02.227Z,9.75
2023-05-01T20:41:31.352Z,10.25
2023-05-01T20:43:59.102Z,11.10
2023-05-01T20:46:29.507Z,11.25
2023-05-01T20:48:57.319Z,12.35
2023-05-01T20:51:27.633Z,11.80
2023-05-01T20:53:55.267Z,12.75
2023-05-01T20:56:23.643Z,11.25
2023-05-01T20:58:51.741Z,10.90
2023-05-01T21:01:19.610Z,11.52
2023-05-01T21:03:49.299Z,11.00
2023-05-01T21:06:17.209Z,11.50
2023-05-01T21:08:46.051Z,12.60
2023-05-01T21:11:13.775Z,11.07
2023-05-01T21:13:41.418Z,11.50
2023-05-01T21:16:14.882Z,10.93
2023-05-01T21:18:43.774Z,11.05
2023-05-01T21:21:15.350Z,11.15
2023-05-01T21:23:48.266Z,11.43
2023-05-01T21:26:16.558Z,10.38
2023-05-01T21:28:45.695Z,10.02
2023-05-01T21:31:14.829Z,10.48
2023-05-01T21:33:46.155Z,9.02
2023-05-01T21:36:18.379Z,9.45
2023-05-01T21:38:47.331Z,8.45
2023-05-01T21:41:15.463Z,7.65
2023-05-01T21:43:43.912Z,8.40
2023-05-01T21:46:16.495Z,7.25
2023-05-01T21:48:45.841Z,8.20
2023-05-01T21:51:14.991Z,7.80
2023-05-01T21:53:43.531Z,8.60
2023-05-01T21:56:12.080Z,8.82
2023-05-01T21:58:40.591Z,8.57
2023-05-01T22:01:09.327Z,9.05
2023-05-01T22:03:42.113Z,8.20
2023-05-01T22:06:09.974Z,8.75
2023-05-01T22:08:39.075Z,8.57
2023-05-01T22:11:08.621Z,8.82
2023-05-01T22:13:36.438Z,8.73
2023-05-01T22:16:04.862Z,8.95
2023-05-01T22:18:32.645Z,8.88
2023-05-01T22:21:01.738Z,8.43
2023-05-01T22:23:29.454Z,8.93
2023-05-01T22:26:01.600Z,9.32
2023-05-01T22:28:29.524Z,8.95
2023-05-01T22:30:57.236Z,9.25
2023-05-01T22:33:25.348Z,8.63
2023-05-01T22:35:53.406Z,8.93
2023-05-01T22:38:21.077Z,9.38
2023-05-01T22:40:49.141Z,9.30
2023-05-01T22:43:18.425Z,9.40
2023-05-01T22:45:47.502Z,9.25
2023-05-01T22:48:15.347Z,8.95
2023-05-01T22:50:44.189Z,8.13
2023-05-01T22:53:12.011Z,9.15
2023-05-01T22:55:40.312Z,9.32
2023-05-01T22:58:08.077Z,8.68
2023-05-01T23:00:38.071Z,8.77
2023-05-01T23:03:06.276Z,9.20
2023-05-01T23:05:35.362Z,9.93
2023-05-01T23:08:03.201Z,10.80
2023-05-01T23:10:33.536Z,9.75
2023-05-01T23:13:01.695Z,10.20
2023-05-01T23:15:29.579Z,9.90
2023-05-01T23:17:59.090Z,10.02
2023-05-01T23:20:26.984Z,10.45
2023-05-01T23:22:55.185Z,9.07
2023-05-01T23:25:26.317Z,10.48
2023-05-01T23:27:57.746Z,10.15
2023-05-01T23:30:25.679Z,10.43
2023-05-01T23:32:53.696Z,11.18
2023-05-01T23:35:25.077Z,11.23
2023-05-01T23:37:54.125Z,10.60
2023-05-01T23:40:21.994Z,11.63
2023-05-01T23:42:50.728Z,10.80
2023-05-01T23:45:18.685Z,11.32
2023-05-01T23:47:47.833Z,11.35
2023-05-01T23:50:15.924Z,12.20
2023-05-01T23:52:45.679Z,9.93
2023-05-01T23:55:14.338Z,11.30
2023-05-01T23:57:42.566Z,11.43
